Time;durP1;ratioP1;P1;durP2;ratioP2;P2;SDS_P1;SDS_P2;PMS_P1;PMS_P2;Temp;Humidity;BMP_temperature;BMP_pressure;BME280_temperature;BME280_humidity;BME280_pressure;Samples;Min_cycle;Max_cycle;Signal;HPM_P1;HPM_P2
2024/02/06 00:01:52;;;;;;;10.13;7.00;;;9.90;99.90;;;;;;5096246;28;20206;-88
2024/02/06 00:04:18;;;;;;;7.47;5.60;;;10.00;99.90;;;;;;5095279;28;20219;-88
2024/02/06 00:06:44;;;;;;;9.23;5.97;;;9.90;99.90;;;;;;5095091;28;20298;-87
2024/02/06 00:09:11;;;;;;;9.33;6.07;;;10.00;99.90;;;;;;5095644;28;20175;-86
2024/02/06 00:11:38;;;;;;;10.20;6.07;;;10.00;99.90;;;;;;5095893;28;20193;-85
2024/02/06 00:14:04;;;;;;;9.73;5.70;;;10.10;99.90;;;;;;5094385;28;20167;-88
2024/02/06 00:16:29;;;;;;;9.20;5.63;;;10.10;99.90;;;;;;5095321;28;20201;-86
2024/02/06 00:18:55;;;;;;;9.17;5.73;;;10.20;99.90;;;;;;5095577;28;20179;-86
2024/02/06 00:21:22;;;;;;;12.37;5.43;;;10.10;99.90;;;;;;5095440;28;20572;-87
2024/02/06 00:23:48;;;;;;;10.33;5.90;;;10.10;99.90;;;;;;5094791;28;20173;-86
2024/02/06 00:26:13;;;;;;;11.57;5.70;;;10.10;99.90;;;;;;5095289;28;20809;-88
2024/02/06 00:28:39;;;;;;;11.07;5.83;;;10.20;99.90;;;;;;5095954;28;20583;-88
2024/02/06 00:31:05;;;;;;;7.00;5.37;;;10.20;99.90;;;;;;5113730;28;20174;-88
2024/02/06 00:33:30;;;;;;;9.00;5.63;;;10.20;99.90;;;;;;5119903;28;20166;-87
2024/02/06 00:35:56;;;;;;;6.87;5.17;;;10.20;99.90;;;;;;5120484;28;20188;-84
2024/02/06 00:38:22;;;;;;;8.20;5.30;;;10.10;99.90;;;;;;5120896;28;20183;-86
2024/02/06 00:40:50;;;;;;;7.43;5.20;;;10.10;99.90;;;;;;5120863;28;20163;-84
2024/02/06 00:43:22;;;;;;;7.10;5.47;;;10.10;99.90;;;;;;5115442;28;20765;-89
2024/02/06 00:45:51;;;;;;;8.40;4.83;;;10.20;99.90;;;;;;5096027;28;20264;-88
2024/02/06 00:48:17;;;;;;;5.83;4.70;;;10.20;99.90;;;;;;5095597;28;20439;-85
2024/02/06 00:50:42;;;;;;;7.20;4.90;;;10.20;99.90;;;;;;5094882;28;20262;-85
2024/02/06 00:53:08;;;;;;;7.20;5.20;;;10.20;99.90;;;;;;5114608;28;20516;-87
2024/02/06 00:55:34;;;;;;;7.67;5.20;;;10.20;99.90;;;;;;5099789;28;20600;-85
2024/02/06 00:57:59;;;;;;;8.53;5.57;;;10.10;99.90;;;;;;5097777;28;20273;-85
2024/02/06 01:00:25;;;;;;;7.47;5.07;;;10.10;99.90;;;;;;5103591;28;20196;-87
2024/02/06 01:02:51;;;;;;;10.80;5.60;;;10.10;99.90;;;;;;5116603;28;20212;-86
2024/02/06 01:05:16;;;;;;;7.57;4.90;;;10.10;99.90;;;;;;5097591;28;20171;-88
2024/02/06 01:07:42;;;;;;;7.17;5.50;;;10.10;99.90;;;;;;5099152;28;20698;-85
2024/02/06 01:10:08;;;;;;;7.60;5.13;;;10.10;99.90;;;;;;5097834;28;20546;-88
2024/02/06 01:12:33;;;;;;;8.73;5.10;;;10.10;99.90;;;;;;5099123;28;20287;-85
2024/02/06 01:14:59;;;;;;;8.63;4.60;;;10.10;99.90;;;;;;5097720;28;20262;-87
2024/02/06 01:17:28;;;;;;;7.30;5.10;;;10.10;99.90;;;;;;5099091;28;20174;-85
2024/02/06 01:19:53;;;;;;;7.60;4.70;;;10.20;99.90;;;;;;5096099;28;20202;-85
2024/02/06 01:22:19;;;;;;;10.20;5.03;;;10.20;99.90;;;;;;5098624;28;20584;-89
2024/02/06 01:24:45;;;;;;;8.20;5.33;;;10.10;99.90;;;;;;5100062;28;20167;-86
2024/02/06 01:27:11;;;;;;;7.97;5.07;;;10.20;99.90;;;;;;5098517;28;20816;-88
2024/02/06 01:29:37;;;;;;;7.97;5.00;;;10.20;99.90;;;;;;5098687;28;20182;-90
2024/02/06 01:32:04;;;;;;;7.47;5.10;;;10.20;99.90;;;;;;5116449;28;20171;-85
2024/02/06 01:34:30;;;;;;;7.60;4.73;;;10.10;99.90;;;;;;5099496;28;20175;-90
2024/02/06 01:36:55;;;;;;;7.53;5.00;;;10.10;99.90;;;;;;5099161;28;20183;-87
2024/02/06 01:39:21;;;;;;;7.17;5.03;;;10.20;99.90;;;;;;5099329;28;20623;-86
2024/02/06 01:41:47;;;;;;;11.93;5.17;;;10.20;99.90;;;;;;5102593;28;20216;-85
2024/02/06 01:44:13;;;;;;;10.20;5.40;;;10.20;99.90;;;;;;5102346;28;20174;-85
2024/02/06 01:46:39;;;;;;;11.77;5.20;;;10.20;99.90;;;;;;5119213;28;20198;-86
2024/02/06 01:49:07;;;;;;;10.40;5.00;;;10.30;99.90;;;;;;5099904;28;20175;-85
2024/02/06 01:51:37;;;;;;;10.23;5.40;;;10.30;99.90;;;;;;5098825;28;20715;-85
2024/02/06 01:54:04;;;;;;;7.13;4.80;;;10.20;99.90;;;;;;5099655;28;20178;-85
2024/02/06 01:56:30;;;;;;;8.67;4.73;;;10.30;99.90;;;;;;5098198;28;20518;-85
2024/02/06 01:58:56;;;;;;;6.43;4.60;;;10.30;99.90;;;;;;5096887;28;20203;-86
2024/02/06 02:01:22;;;;;;;6.30;4.27;;;10.30;99.90;;;;;;5097547;28;20266;-86
2024/02/06 02:03:52;;;;;;;8.37;4.70;;;10.30;99.90;;;;;;5097179;28;20172;-86
2024/02/06 02:06:18;;;;;;;8.20;4.60;;;10.20;99.90;;;;;;5097884;28;20290;-88
2024/02/06 02:08:45;;;;;;;6.97;4.77;;;10.30;99.90;;;;;;5116327;28;20706;-85
2024/02/06 02:11:11;;;;;;;9.50;4.83;;;10.30;99.90;;;;;;5114804;28;20178;-86
2024/02/06 02:13:38;;;;;;;9.77;5.03;;;10.30;99.90;;;;;;5097766;28;20264;-86
2024/02/06 02:16:05;;;;;;;9.93;5.00;;;10.30;99.90;;;;;;5096357;28;20701;-85
2024/02/06 02:18:35;;;;;;;11.40;5.10;;;10.40;99.90;;;;;;5096370;28;20195;-86
2024/02/06 02:21:15;;;;;;;10.67;4.93;;;10.40;99.90;;;;;;5097976;28;20183;-84
2024/02/06 02:23:42;;;;;;;9.73;4.73;;;10.30;99.90;;;;;;5096777;28;20210;-84
2024/02/06 02:26:11;;;;;;;9.60;4.87;;;10.20;99.90;;;;;;5097863;28;20167;-86
2024/02/06 02:28:37;;;;;;;6.87;4.67;;;10.30;99.90;;;;;;5097854;28;20694;-85
2024/02/06 02:31:05;;;;;;;6.87;4.90;;;10.40;99.90;;;;;;5115864;28;20199;-84
2024/02/06 02:33:32;;;;;;;6.93;4.50;;;10.40;99.90;;;;;;5097518;28;20179;-86
2024/02/06 02:35:57;;;;;;;8.80;4.53;;;10.40;99.90;;;;;;5097139;28;20643;-86
2024/02/06 02:38:24;;;;;;;10.43;4.13;;;10.40;99.90;;;;;;5096693;28;20179;-86
2024/02/06 02:40:50;;;;;;;7.13;4.07;;;10.40;99.90;;;;;;5097336;28;20171;-86
2024/02/06 02:43:17;;;;;;;13.27;5.10;;;10.30;99.90;;;;;;5096397;28;20172;-86
2024/02/06 02:45:44;;;;;;;6.80;4.70;;;10.30;99.90;;;;;;5097201;28;20172;-86
2024/02/06 02:48:10;;;;;;;7.83;4.23;;;10.30;99.90;;;;;;5096738;28;20664;-84
2024/02/06 02:50:35;;;;;;;10.03;4.40;;;10.30;99.90;;;;;;5097316;28;20175;-85
2024/02/06 02:53:01;;;;;;;5.97;4.20;;;10.40;99.90;;;;;;5096522;28;20198;-85
2024/02/06 02:55:27;;;;;;;11.27;4.60;;;10.40;99.90;;;;;;5096322;28;20258;-85
2024/02/06 02:57:52;;;;;;;8.97;4.37;;;10.40;99.90;;;;;;5096608;28;20195;-85
2024/02/06 03:00:19;;;;;;;9.80;4.77;;;10.30;99.90;;;;;;5096867;28;20650;-84
2024/02/06 03:02:45;;;;;;;8.43;4.53;;;10.20;99.90;;;;;;5096976;28;20168;-85
2024/02/06 03:05:12;;;;;;;9.27;4.10;;;10.20;99.90;;;;;;5096325;28;20189;-85
2024/02/06 03:07:38;;;;;;;10.53;5.07;;;10.20;99.90;;;;;;5095616;28;20210;-84
2024/02/06 03:10:05;;;;;;;10.00;4.87;;;10.20;99.90;;;;;;5096755;28;20167;-85
2024/02/06 03:12:32;;;;;;;10.63;4.50;;;10.20;99.90;;;;;;5113923;28;20235;-85
2024/02/06 03:14:59;;;;;;;8.73;4.60;;;10.20;99.90;;;;;;5096909;28;20198;-84
2024/02/06 03:17:26;;;;;;;9.33;4.60;;;10.30;99.90;;;;;;5097685;28;20175;-85
2024/02/06 03:19:52;;;;;;;9.80;4.47;;;10.30;99.90;;;;;;5096614;28;20529;-88
2024/02/06 03:22:20;;;;;;;8.63;4.50;;;10.20;99.90;;;;;;5096677;28;20172;-86
2024/02/06 03:24:46;;;;;;;7.53;4.53;;;10.30;99.90;;;;;;5095524;28;20220;-85
2024/02/06 03:27:11;;;;;;;7.37;4.57;;;10.30;99.90;;;;;;5114755;28;20191;-85
2024/02/06 03:29:37;;;;;;;7.47;4.73;;;10.30;99.90;;;;;;5103888;28;20202;-85
2024/02/06 03:32:04;;;;;;;11.37;4.83;;;10.30;99.90;;;;;;5095878;28;20712;-86
2024/02/06 03:34:29;;;;;;;7.80;4.33;;;10.30;99.90;;;;;;5094882;28;20171;-86
2024/02/06 03:36:55;;;;;;;9.53;4.63;;;10.30;99.90;;;;;;5095986;28;20226;-85
2024/02/06 03:39:22;;;;;;;8.47;4.57;;;10.30;99.90;;;;;;5095429;28;20225;-85
2024/02/06 03:41:47;;;;;;;8.63;4.27;;;10.20;99.90;;;;;;5095476;28;20190;-84
2024/02/06 03:44:14;;;;;;;8.33;4.50;;;10.20;99.90;;;;;;5094249;28;20203;-84
2024/02/06 03:46:40;;;;;;;7.70;4.70;;;10.30;99.90;;;;;;5095727;28;20216;-85
2024/02/06 03:49:07;;;;;;;6.70;4.33;;;10.20;99.90;;;;;;5095488;28;20171;-84
2024/02/06 03:51:33;;;;;;;9.53;4.63;;;10.30;99.90;;;;;;5095315;28;20195;-84
2024/02/06 03:53:59;;;;;;;6.77;4.33;;;10.10;99.90;;;;;;5094459;28;20259;-85
2024/02/06 03:56:25;;;;;;;10.17;5.40;;;10.20;99.90;;;;;;5094535;28;20202;-86
2024/02/06 03:58:50;;;;;;;7.73;4.83;;;10.20;99.90;;;;;;5093375;28;20598;-85
2024/02/06 04:01:16;;;;;;;11.20;5.03;;;10.20;99.90;;;;;;5095764;28;20174;-85
2024/02/06 04:03:43;;;;;;;9.53;5.43;;;10.20;99.90;;;;;;5096051;28;20674;-85
2024/02/06 04:06:12;;;;;;;7.97;4.43;;;10.20;99.90;;;;;;5095504;28;20176;-86
2024/02/06 04:08:38;;;;;;;11.07;4.27;;;10.30;99.90;;;;;;5095767;28;20182;-84
2024/02/06 04:11:04;;;;;;;9.17;4.63;;;10.30;99.90;;;;;;5095751;28;20172;-86
2024/02/06 04:13:30;;;;;;;10.03;5.33;;;10.40;99.90;;;;;;5095357;28;20213;-85
2024/02/06 04:15:56;;;;;;;12.20;5.00;;;10.40;99.90;;;;;;5094194;28;20512;-85
2024/02/06 04:18:21;;;;;;;9.27;5.13;;;10.50;99.90;;;;;;5095068;28;20263;-86
2024/02/06 04:20:47;;;;;;;9.87;4.97;;;10.40;99.90;;;;;;5094844;28;20652;-86
2024/02/06 04:23:13;;;;;;;10.00;5.00;;;10.40;99.90;;;;;;5095166;28;20270;-85
2024/02/06 04:25:38;;;;;;;9.20;4.87;;;10.40;99.90;;;;;;5094753;28;20658;-85
2024/02/06 04:28:05;;;;;;;8.00;4.67;;;10.40;99.90;;;;;;5094579;28;20297;-85
2024/02/06 04:30:30;;;;;;;10.97;5.33;;;10.40;99.90;;;;;;5095053;28;20546;-84
2024/02/06 04:32:56;;;;;;;6.90;4.57;;;10.40;99.90;;;;;;5096056;28;20175;-85
2024/02/06 04:35:22;;;;;;;9.37;5.83;;;10.50;99.90;;;;;;5095111;28;20167;-84
2024/02/06 04:37:47;;;;;;;9.17;5.00;;;10.40;99.90;;;;;;5094903;28;20198;-84
2024/02/06 04:40:13;;;;;;;11.30;5.23;;;10.50;99.90;;;;;;5095466;28;20230;-85
2024/02/06 04:42:39;;;;;;;7.47;5.20;;;10.50;99.90;;;;;;5094818;28;20304;-84
2024/02/06 04:45:05;;;;;;;11.97;4.70;;;10.40;99.90;;;;;;5095018;28;20221;-85
2024/02/06 04:47:34;;;;;;;11.77;5.20;;;10.40;99.90;;;;;;5094899;28;20219;-86
2024/02/06 04:50:00;;;;;;;9.07;5.43;;;10.40;99.90;;;;;;5094954;28;20171;-84
2024/02/06 04:52:26;;;;;;;8.67;5.00;;;10.50;99.90;;;;;;5094412;28;20245;-85
2024/02/06 04:54:52;;;;;;;9.27;5.00;;;10.50;99.90;;;;;;5112993;28;20260;-84
2024/02/06 04:57:17;;;;;;;11.67;5.40;;;10.40;99.90;;;;;;5093820;28;20261;-85
2024/02/06 04:59:43;;;;;;;11.60;5.67;;;10.40;99.90;;;;;;5095018;28;20635;-85
2024/02/06 05:02:09;;;;;;;13.03;5.97;;;10.40;99.90;;;;;;5094801;28;20195;-84
2024/02/06 05:04:34;;;;;;;8.83;5.13;;;10.40;99.90;;;;;;5094091;28;20194;-86
2024/02/06 05:07:00;;;;;;;9.63;4.83;;;10.40;99.90;;;;;;5095107;28;20221;-85
2024/02/06 05:09:27;;;;;;;10.03;5.13;;;10.40;99.90;;;;;;5094884;28;20770;-84
2024/02/06 05:11:53;;;;;;;10.87;5.33;;;10.40;99.90;;;;;;5094950;28;20182;-85
2024/02/06 05:14:19;;;;;;;9.80;5.20;;;10.40;99.90;;;;;;5093619;28;20168;-85
2024/02/06 05:16:45;;;;;;;9.53;5.20;;;10.50;99.90;;;;;;5093615;28;20215;-85
2024/02/06 05:19:14;;;;;;;9.63;4.70;;;10.50;99.90;;;;;;5093951;28;20183;-85
2024/02/06 05:21:41;;;;;;;10.03;5.13;;;10.50;99.90;;;;;;5094271;28;20269;-85
2024/02/06 05:24:07;;;;;;;11.10;5.27;;;10.50;99.90;;;;;;5094397;28;20175;-86
2024/02/06 05:26:33;;;;;;;10.03;5.37;;;10.60;99.90;;;;;;5113070;28;20247;-89
2024/02/06 05:28:59;;;;;;;9.73;5.40;;;10.60;99.90;;;;;;5096073;28;20203;-85
2024/02/06 05:31:24;;;;;;;9.60;5.13;;;10.50;99.90;;;;;;5096179;28;20187;-85
2024/02/06 05:33:50;;;;;;;11.63;5.50;;;10.50;99.90;;;;;;5094918;28;20201;-85
2024/02/06 05:36:16;;;;;;;12.77;5.00;;;10.50;99.90;;;;;;5094622;28;20262;-85
2024/02/06 05:38:41;;;;;;;12.47;5.60;;;10.50;99.90;;;;;;5095288;28;20173;-84
2024/02/06 05:41:12;;;;;;;8.47;5.47;;;10.60;99.90;;;;;;5097402;28;20646;-86
2024/02/06 05:43:38;;;;;;;10.07;5.40;;;10.60;99.90;;;;;;5115609;28;20170;-87
2024/02/06 05:46:05;;;;;;;10.97;5.87;;;10.60;99.90;;;;;;5098297;28;20194;-85
2024/02/06 05:48:31;;;;;;;12.43;5.17;;;10.60;99.90;;;;;;5097321;28;20183;-85
2024/02/06 05:50:56;;;;;;;9.70;5.00;;;10.60;99.90;;;;;;5098471;28;20543;-84
2024/02/06 05:53:22;;;;;;;11.70;5.53;;;10.60;99.90;;;;;;5097839;28;20756;-85
2024/02/06 05:55:48;;;;;;;10.00;5.67;;;10.60;99.90;;;;;;5097995;28;20201;-84
2024/02/06 05:58:14;;;;;;;10.80;5.53;;;10.60;99.90;;;;;;5097428;28;20650;-85
2024/02/06 06:00:40;;;;;;;10.40;5.83;;;10.60;99.90;;;;;;5097435;28;20236;-85
2024/02/06 06:03:05;;;;;;;13.33;5.93;;;10.60;99.90;;;;;;5098901;28;20175;-85
2024/02/06 06:05:33;;;;;;;12.00;5.07;;;10.60;99.90;;;;;;5099331;28;20546;-85
2024/02/06 06:07:59;;;;;;;12.40;5.47;;;10.60;99.90;;;;;;5098031;28;20247;-85
2024/02/06 06:10:24;;;;;;;10.50;5.87;;;10.60;99.90;;;;;;5098129;28;20667;-87
2024/02/06 06:12:50;;;;;;;12.03;5.70;;;10.60;99.90;;;;;;5097533;28;20628;-85
2024/02/06 06:15:16;;;;;;;10.83;5.70;;;10.60;99.90;;;;;;5096224;28;20167;-85
2024/02/06 06:17:43;;;;;;;10.00;5.77;;;10.60;99.90;;;;;;5097280;28;20221;-85
2024/02/06 06:20:09;;;;;;;10.67;5.73;;;10.60;99.90;;;;;;5097276;28;20711;-86
2024/02/06 06:22:35;;;;;;;9.23;5.53;;;10.60;99.90;;;;;;5096696;28;20229;-86
2024/02/06 06:25:01;;;;;;;8.60;5.37;;;10.60;99.90;;;;;;5114828;28;20180;-86
2024/02/06 06:27:27;;;;;;;10.50;5.60;;;10.50;99.90;;;;;;5128910;28;20203;-83
2024/02/06 06:29:52;;;;;;;12.17;5.93;;;10.50;99.90;;;;;;5113631;28;20184;-85
2024/02/06 06:32:31;;;;;;;11.77;5.80;;;10.50;99.90;;;;;;5105100;28;20172;-84
2024/02/06 06:35:04;;;;;;;9.73;6.30;;;10.50;99.90;;;;;;5099498;28;20679;-87
2024/02/06 06:37:30;;;;;;;10.07;5.60;;;10.60;99.90;;;;;;5097920;28;20172;-86
2024/02/06 06:39:56;;;;;;;15.03;6.90;;;10.50;99.90;;;;;;5101153;28;20182;-85
2024/02/06 06:42:22;;;;;;;9.93;5.73;;;10.50;99.90;;;;;;5101548;28;20175;-86
2024/02/06 06:44:48;;;;;;;9.37;5.97;;;10.50;99.90;;;;;;5096184;28;20171;-86
2024/02/06 06:47:14;;;;;;;10.63;5.90;;;10.30;99.90;;;;;;5098219;28;20703;-85
2024/02/06 06:49:40;;;;;;;12.43;6.00;;;10.40;99.90;;;;;;5095573;28;20176;-84
2024/02/06 06:52:07;;;;;;;14.30;6.47;;;10.40;99.90;;;;;;5095131;28;20167;-84
2024/02/06 06:54:36;;;;;;;12.30;6.07;;;10.50;99.90;;;;;;5096316;28;20174;-84
2024/02/06 06:57:04;;;;;;;12.13;6.73;;;10.50;99.90;;;;;;5095805;28;20171;-85
2024/02/06 06:59:31;;;;;;;11.93;6.53;;;10.40;99.90;;;;;;5096139;28;20522;-84
2024/02/06 07:01:58;;;;;;;9.47;5.50;;;10.50;99.90;;;;;;5095462;28;20201;-83
2024/02/06 07:04:28;;;;;;;11.30;6.03;;;10.50;99.90;;;;;;5096454;28;20168;-86
2024/02/06 07:06:54;;;;;;;9.87;5.80;;;10.50;99.90;;;;;;5096005;28;20202;-85
2024/02/06 07:09:25;;;;;;;10.47;5.77;;;10.60;99.90;;;;;;5095477;28;20171;-86
2024/02/06 07:11:52;;;;;;;10.87;6.00;;;10.60;99.90;;;;;;5095606;28;20268;-86
2024/02/06 07:14:18;;;;;;;8.47;5.47;;;10.60;99.90;;;;;;5095938;28;20220;-84
2024/02/06 07:16:44;;;;;;;8.93;5.70;;;10.50;99.90;;;;;;5114038;28;20220;-87
2024/02/06 07:19:10;;;;;;;10.87;5.37;;;10.50;99.90;;;;;;5094458;28;20191;-91
2024/02/06 07:21:37;;;;;;;11.17;5.57;;;10.60;99.90;;;;;;5094283;28;20227;-85
2024/02/06 07:24:04;;;;;;;11.47;5.60;;;10.60;99.90;;;;;;5095807;28;20254;-85
2024/02/06 07:26:31;;;;;;;12.67;6.13;;;10.50;99.90;;;;;;5095843;28;20199;-85
2024/02/06 07:28:57;;;;;;;10.53;6.17;;;10.50;99.90;;;;;;5095613;28;20326;-85
2024/02/06 07:31:23;;;;;;;11.70;5.90;;;10.50;99.90;;;;;;5095849;28;20207;-85
2024/02/06 07:33:49;;;;;;;12.07;5.90;;;10.60;99.90;;;;;;5095908;28;20204;-82
2024/02/06 07:36:15;;;;;;;10.07;6.27;;;10.60;99.90;;;;;;5095214;28;20387;-87
2024/02/06 07:38:46;;;;;;;11.10;5.67;;;10.60;99.90;;;;;;5093914;28;20699;-85
2024/02/06 07:41:12;;;;;;;13.50;6.03;;;10.60;99.90;;;;;;5094832;28;20180;-85
2024/02/06 07:43:38;;;;;;;12.37;5.67;;;10.60;99.90;;;;;;5114831;28;20171;-85
2024/02/06 07:46:04;;;;;;;19.43;6.30;;;10.60;99.90;;;;;;5096306;28;20202;-86
2024/02/06 07:48:30;;;;;;;11.67;6.30;;;10.60;99.90;;;;;;5095354;28;20191;-86
2024/02/06 07:50:57;;;;;;;12.20;6.27;;;10.60;99.90;;;;;;5096040;28;20203;-85
2024/02/06 07:53:23;;;;;;;16.13;6.43;;;10.70;99.90;;;;;;5095713;28;20193;-87
2024/02/06 07:55:49;;;;;;;15.37;6.30;;;10.70;99.90;;;;;;5095307;28;20628;-84
2024/02/06 07:58:14;;;;;;;10.13;6.37;;;10.70;99.90;;;;;;5095754;28;20191;-85
2024/02/06 08:00:40;;;;;;;12.33;6.23;;;10.80;99.90;;;;;;5095330;28;20253;-86
2024/02/06 08:03:06;;;;;;;11.03;6.07;;;10.70;99.90;;;;;;5095241;28;20172;-86
2024/02/06 08:05:32;;;;;;;14.17;6.20;;;10.80;99.90;;;;;;5095137;28;20665;-85
2024/02/06 08:07:58;;;;;;;16.67;7.27;;;10.80;99.90;;;;;;5095569;28;20220;-84
2024/02/06 08:10:24;;;;;;;15.93;6.30;;;10.90;99.90;;;;;;5095386;28;20171;-86
2024/02/06 08:12:49;;;;;;;12.20;6.30;;;10.80;99.90;;;;;;5095214;28;20193;-85
2024/02/06 08:15:15;;;;;;;12.33;6.30;;;10.80;99.90;;;;;;5095784;28;20180;-86
2024/02/06 08:17:42;;;;;;;13.63;6.07;;;10.80;99.90;;;;;;5095597;28;20175;-86
2024/02/06 08:20:09;;;;;;;11.83;6.13;;;10.80;99.90;;;;;;5113546;28;20158;-86
2024/02/06 08:22:36;;;;;;;14.70;5.80;;;10.90;99.90;;;;;;5095675;28;20227;-85
2024/02/06 08:25:01;;;;;;;14.97;5.73;;;10.80;99.90;;;;;;5095151;28;20237;-85
2024/02/06 08:27:27;;;;;;;15.77;6.13;;;10.80;99.90;;;;;;5095376;28;20682;-85
2024/02/06 08:29:53;;;;;;;17.53;6.47;;;10.70;99.90;;;;;;5095712;28;20576;-85
2024/02/06 08:32:18;;;;;;;15.80;6.17;;;10.80;99.90;;;;;;5095443;28;20635;-86
2024/02/06 08:34:44;;;;;;;13.07;6.43;;;10.80;99.90;;;;;;5095312;28;20684;-85
2024/02/06 08:37:09;;;;;;;12.37;6.27;;;10.80;99.90;;;;;;5089048;28;20176;-86
2024/02/06 08:39:35;;;;;;;13.50;5.50;;;10.80;99.90;;;;;;5081785;28;20199;-85
2024/02/06 08:42:01;;;;;;;11.53;5.17;;;10.80;99.90;;;;;;5075226;28;20200;-85
2024/02/06 08:44:26;;;;;;;15.10;6.10;;;10.80;99.90;;;;;;5075148;28;20168;-86
2024/02/06 08:46:52;;;;;;;13.97;5.90;;;10.80;99.90;;;;;;5074658;28;20206;-86
2024/02/06 08:49:19;;;;;;;17.47;7.13;;;10.80;99.90;;;;;;5092908;28;20185;-86
2024/02/06 08:51:45;;;;;;;12.93;6.50;;;10.80;99.90;;;;;;5075022;28;20571;-85
2024/02/06 08:54:11;;;;;;;11.20;5.80;;;10.80;99.90;;;;;;5075165;28;20225;-86
2024/02/06 08:56:36;;;;;;;10.80;5.57;;;10.90;99.90;;;;;;5076045;28;20172;-84
2024/02/06 08:59:03;;;;;;;14.93;6.57;;;10.90;99.90;;;;;;5074862;28;20238;-85
2024/02/06 09:01:29;;;;;;;10.57;6.03;;;10.90;99.90;;;;;;5075099;28;20168;-87
2024/02/06 09:03:55;;;;;;;12.13;6.30;;;11.00;99.90;;;;;;5075084;28;20175;-85
2024/02/06 09:06:21;;;;;;;16.07;6.73;;;11.00;99.90;;;;;;5075024;28;20270;-88
2024/02/06 09:08:47;;;;;;;9.83;5.93;;;11.10;99.90;;;;;;5074933;28;20270;-86
2024/02/06 09:11:13;;;;;;;12.90;5.63;;;11.00;99.90;;;;;;5074531;28;20214;-86
2024/02/06 09:13:38;;;;;;;13.77;6.17;;;10.90;99.90;;;;;;5075778;28;20635;-85
2024/02/06 09:16:05;;;;;;;12.57;5.67;;;11.00;99.90;;;;;;5078710;28;20565;-86
2024/02/06 09:18:30;;;;;;;10.80;5.20;;;11.00;99.90;;;;;;5078509;28;20164;-85
2024/02/06 09:20:56;;;;;;;15.80;6.20;;;11.00;99.90;;;;;;5079332;28;20173;-86
2024/02/06 09:23:22;;;;;;;10.40;5.80;;;11.10;99.90;;;;;;5099866;28;20177;-85
2024/02/06 09:25:47;;;;;;;15.40;6.17;;;11.10;99.90;;;;;;5086268;28;20156;-85
2024/02/06 09:28:14;;;;;;;16.03;6.17;;;11.10;99.90;;;;;;5102875;28;20325;-86
2024/02/06 09:30:43;;;;;;;12.43;5.90;;;11.10;99.90;;;;;;5097313;28;20259;-86
2024/02/06 09:33:31;;;;;;;16.90;6.73;;;11.10;99.90;;;;;;5089952;28;20201;-84
2024/02/06 09:36:01;;;;;;;7.87;5.40;;;11.10;99.90;;;;;;5078436;28;20167;-86
2024/02/06 09:38:28;;;;;;;14.27;6.23;;;11.10;99.90;;;;;;5078743;28;20181;-85
2024/02/06 09:41:00;;;;;;;16.00;7.07;;;11.10;99.90;;;;;;5102435;28;20245;-85
2024/02/06 09:43:30;;;;;;;13.30;5.93;;;11.20;99.90;;;;;;5079210;28;20187;-86
2024/02/06 09:45:56;;;;;;;11.03;5.90;;;11.10;99.90;;;;;;5074077;28;20623;-88
2024/02/06 09:48:25;;;;;;;15.33;6.07;;;11.10;99.90;;;;;;5079838;28;20243;-87
2024/02/06 09:50:54;;;;;;;13.77;6.47;;;11.20;99.90;;;;;;5079331;28;20173;-86
2024/02/06 09:53:28;;;;;;;13.07;5.63;;;11.20;99.90;;;;;;5078991;28;20172;-86
2024/02/06 09:55:55;;;;;;;13.63;6.33;;;11.10;99.90;;;;;;5079120;28;20169;-85
2024/02/06 09:58:22;;;;;;;11.87;5.90;;;11.10;99.90;;;;;;5078685;28;20196;-87
2024/02/06 10:00:51;;;;;;;11.67;5.67;;;11.10;99.90;;;;;;5079071;28;20209;-87
2024/02/06 10:03:32;;;;;;;17.90;6.30;;;11.20;99.90;;;;;;5078480;28;20305;-85
2024/02/06 10:06:03;;;;;;;13.53;5.33;;;11.20;99.90;;;;;;5078207;28;20189;-87
2024/02/06 10:08:30;;;;;;;17.17;6.10;;;11.20;99.90;;;;;;5077695;28;20296;-85
2024/02/06 10:10:57;;;;;;;14.10;5.43;;;11.20;99.90;;;;;;5078860;28;20179;-86
2024/02/06 10:13:23;;;;;;;12.50;4.90;;;11.10;99.90;;;;;;5095357;28;20234;-87
2024/02/06 10:15:49;;;;;;;14.33;5.87;;;11.20;99.90;;;;;;5077437;28;20633;-85
2024/02/06 10:18:17;;;;;;;12.87;5.90;;;11.20;99.90;;;;;;5077965;28;20247;-85
2024/02/06 10:20:46;;;;;;;11.63;5.13;;;11.30;99.90;;;;;;5077820;28;20180;-86
2024/02/06 10:23:18;;;;;;;11.23;5.40;;;11.30;99.90;;;;;;5095505;28;20199;-90
2024/02/06 10:25:44;;;;;;;10.90;5.23;;;11.30;99.90;;;;;;5076460;28;20196;-86
2024/02/06 10:28:31;;;;;;;11.73;5.30;;;11.30;99.90;;;;;;5076889;28;20203;-85
2024/02/06 10:30:57;;;;;;;8.90;4.50;;;11.30;99.90;;;;;;5094987;28;20590;-83
2024/02/06 10:33:23;;;;;;;11.57;4.93;;;11.40;99.90;;;;;;5077012;28;20168;-88
2024/02/06 10:35:49;;;;;;;16.20;5.20;;;11.40;99.90;;;;;;5077536;28;20517;-87
2024/02/06 10:38:16;;;;;;;10.40;4.57;;;11.40;99.90;;;;;;5077104;28;20205;-86
2024/02/06 10:40:44;;;;;;;12.77;5.73;;;11.50;99.90;;;;;;5077109;28;20197;-87
2024/02/06 10:43:10;;;;;;;15.00;5.70;;;11.50;99.90;;;;;;5076912;28;20168;-87
2024/02/06 10:45:37;;;;;;;11.47;5.07;;;11.40;99.90;;;;;;5076689;28;20183;-87
2024/02/06 10:48:03;;;;;;;16.53;5.40;;;11.50;99.90;;;;;;5076737;28;20212;-89
2024/02/06 10:50:30;;;;;;;10.13;4.73;;;11.50;99.90;;;;;;5079408;28;20513;-85
2024/02/06 10:52:56;;;;;;;13.10;4.67;;;11.50;99.90;;;;;;5063521;28;20186;-86
2024/02/06 10:55:24;;;;;;;15.97;5.03;;;11.50;99.90;;;;;;5080413;28;20173;-88
2024/02/06 10:58:02;;;;;;;7.47;4.33;;;11.60;99.90;;;;;;5080943;28;20192;-91
2024/02/06 11:00:32;;;;;;;9.03;4.50;;;11.60;99.90;;;;;;5082951;28;20183;-86
2024/02/06 11:02:58;;;;;;;11.17;4.50;;;11.70;99.90;;;;;;5079463;28;20175;-85
2024/02/06 11:05:52;;;;;;;11.17;4.37;;;11.70;99.90;;;;;;5081094;28;20173;-85
2024/02/06 11:08:24;;;;;;;14.90;4.53;;;11.70;99.90;;;;;;5078872;28;20198;-86
2024/02/06 11:10:56;;;;;;;9.87;3.67;;;11.80;99.90;;;;;;5079692;28;20209;-85
2024/02/06 11:13:28;;;;;;;14.00;4.37;;;11.90;99.90;;;;;;5078293;28;20189;-87
2024/02/06 11:15:57;;;;;;;10.33;4.90;;;11.90;99.90;;;;;;5079733;28;20193;-86
2024/02/06 11:18:32;;;;;;;16.70;4.63;;;11.90;99.90;;;;;;5079159;28;20181;-86
2024/02/06 11:21:00;;;;;;;13.70;4.23;;;11.90;99.90;;;;;;5081365;28;20171;-86
2024/02/06 11:23:29;;;;;;;11.27;4.47;;;11.90;99.90;;;;;;5078438;28;20182;-87
2024/02/06 11:25:55;;;;;;;11.57;4.50;;;11.90;99.90;;;;;;5081513;28;20168;-86
2024/02/06 11:28:22;;;;;;;15.80;4.57;;;11.90;99.90;;;;;;5081227;28;20208;-85
2024/02/06 11:30:50;;;;;;;11.83;3.90;;;11.90;99.90;;;;;;5099833;28;20167;-86
2024/02/06 11:33:19;;;;;;;12.07;4.83;;;11.80;99.90;;;;;;5096425;28;20174;-85
2024/02/06 11:35:45;;;;;;;11.80;4.40;;;11.80;99.90;;;;;;5080088;28;20215;-85
2024/02/06 11:38:12;;;;;;;10.40;4.03;;;11.90;99.90;;;;;;5078298;28;20182;-83
2024/02/06 11:40:39;;;;;;;13.07;3.97;;;12.00;99.90;;;;;;5078683;28;20182;-86
2024/02/06 11:43:06;;;;;;;12.23;4.30;;;12.00;99.90;;;;;;5076649;28;20268;-88
2024/02/06 11:45:34;;;;;;;16.00;4.10;;;12.00;99.90;;;;;;5078492;28;20645;-86
2024/02/06 11:48:03;;;;;;;13.73;3.93;;;12.10;99.90;;;;;;5080940;28;20273;-86
2024/02/06 11:50:39;;;;;;;10.57;4.33;;;12.00;99.90;;;;;;5080573;28;20233;-86
2024/02/06 11:53:09;;;;;;;9.33;4.37;;;12.00;99.90;;;;;;5079057;28;20173;-86
2024/02/06 11:55:35;;;;;;;9.80;4.10;;;11.90;99.90;;;;;;5078444;28;20174;-86
2024/02/06 11:58:01;;;;;;;16.57;4.20;;;12.00;99.90;;;;;;5079935;28;20191;-86
2024/02/06 12:00:27;;;;;;;9.37;4.30;;;12.00;99.90;;;;;;5079234;28;20209;-87
2024/02/06 12:02:57;;;;;;;8.40;3.60;;;12.00;99.90;;;;;;5081349;28;20596;-86
2024/02/06 12:05:23;;;;;;;11.60;4.03;;;12.00;99.90;;;;;;5078424;28;20204;-85
2024/02/06 12:07:57;;;;;;;9.83;4.20;;;12.00;99.90;;;;;;5078598;28;20223;-85
2024/02/06 12:10:29;;;;;;;8.33;3.83;;;12.10;99.90;;;;;;5078347;28;20547;-86
2024/02/06 12:12:56;;;;;;;10.13;3.83;;;12.10;99.90;;;;;;5077922;28;20197;-86
2024/02/06 12:15:25;;;;;;;11.93;3.80;;;12.10;99.90;;;;;;5077753;28;20680;-86
2024/02/06 12:17:50;;;;;;;8.27;3.10;;;12.20;99.90;;;;;;5076507;28;20737;-85
2024/02/06 12:20:17;;;;;;;9.40;3.70;;;12.10;99.90;;;;;;5086581;28;20188;-84
2024/02/06 12:22:43;;;;;;;8.40;4.07;;;12.10;99.90;;;;;;5099441;28;20193;-86
2024/02/06 12:25:13;;;;;;;9.73;3.53;;;12.20;99.90;;;;;;5098635;28;20239;-86
2024/02/06 12:27:43;;;;;;;7.57;3.30;;;12.30;99.90;;;;;;5095876;28;20228;-86
2024/02/06 12:30:21;;;;;;;13.63;3.60;;;12.20;99.90;;;;;;5088640;28;20259;-85
2024/02/06 12:32:47;;;;;;;10.97;4.07;;;12.20;99.90;;;;;;5075271;28;20181;-85
2024/02/06 12:35:18;;;;;;;13.93;4.17;;;12.20;99.90;;;;;;5075821;28;20547;-86
2024/02/06 12:37:43;;;;;;;8.43;3.53;;;12.20;99.90;;;;;;5075249;28;20177;-86
2024/02/06 12:40:10;;;;;;;9.77;4.00;;;12.20;99.90;;;;;;5074723;28;20585;-86